createdAt,value
2022-08-26T00:01:16.016Z,4.40
2022-08-26T00:04:23.620Z,4.47
2022-08-26T00:07:28.502Z,4.32
2022-08-26T00:10:34.577Z,5.47
2022-08-26T00:13:39.606Z,5.35
2022-08-26T00:19:57.158Z,5.28
2022-08-26T00:23:02.213Z,5.40
2022-08-26T00:26:08.295Z,5.18
2022-08-26T00:29:13.977Z,4.53
2022-08-26T00:32:19.819Z,3.72
2022-08-26T00:35:26.304Z,3.88
2022-08-26T00:38:33.118Z,4.35
2022-08-26T00:41:41.451Z,3.78
2022-08-26T00:44:46.243Z,3.70
2022-08-26T00:47:57.715Z,4.10
2022-08-26T00:51:15.766Z,3.25
2022-08-26T00:54:24.517Z,4.30
2022-08-26T00:57:33.203Z,5.30
2022-08-26T01:00:38.115Z,3.95
2022-08-26T01:03:45.033Z,3.72
2022-08-26T01:06:53.616Z,3.65
2022-08-26T01:10:01.761Z,2.95
2022-08-26T01:13:12.772Z,2.53
2022-08-26T01:16:17.910Z,4.30
2022-08-26T01:19:32.442Z,3.17
2022-08-26T01:23:01.620Z,4.13
2022-08-26T01:26:27.464Z,5.20
2022-08-26T01:29:34.449Z,3.35
2022-08-26T01:32:40.258Z,2.88
2022-08-26T01:35:47.016Z,3.88
2022-08-26T01:38:53.955Z,2.92
2022-08-26T01:42:03.066Z,2.97
2022-08-26T01:45:16.620Z,3.63
2022-08-26T01:48:28.454Z,3.83
2022-08-26T01:51:37.270Z,2.70
2022-08-26T01:54:42.687Z,2.53
2022-08-26T01:57:56.249Z,2.47
2022-08-26T02:01:01.609Z,2.38
2022-08-26T02:04:19.176Z,2.92
2022-08-26T02:07:26.693Z,3.92
2022-08-26T02:10:32.075Z,1.88
2022-08-26T02:13:45.759Z,2.17
2022-08-26T02:16:59.216Z,2.60
2022-08-26T02:20:15.414Z,2.78
2022-08-26T02:23:21.820Z,4.05
2022-08-26T02:26:28.867Z,1.55
2022-08-26T02:29:41.369Z,1.90
2022-08-26T02:32:46.833Z,1.90
2022-08-26T02:35:54.255Z,2.33
2022-08-26T02:38:59.616Z,2.72
2022-08-26T02:42:05.847Z,2.15
2022-08-26T02:45:11.594Z,3.67
2022-08-26T02:48:19.457Z,2.72
2022-08-26T02:51:24.320Z,2.70
2022-08-26T02:54:29.131Z,3.85
2022-08-26T02:57:33.845Z,3.13
2022-08-26T03:00:39.945Z,3.00
2022-08-26T03:03:59.336Z,2.10
2022-08-26T03:07:04.616Z,1.83
2022-08-26T03:10:12.485Z,1.50
2022-08-26T03:13:17.054Z,2.05
2022-08-26T03:16:21.863Z,1.42
2022-08-26T03:19:28.082Z,1.88
2022-08-26T03:22:33.588Z,2.17
2022-08-26T03:25:38.634Z,1.67
2022-08-26T03:29:02.199Z,1.70
2022-08-26T03:32:07.316Z,2.60
2022-08-26T03:35:12.643Z,1.85
2022-08-26T03:38:16.838Z,1.90
2022-08-26T03:41:21.958Z,1.60
2022-08-26T03:44:26.720Z,2.85
2022-08-26T03:47:32.060Z,1.73
2022-08-26T03:50:37.168Z,3.17
2022-08-26T03:53:41.956Z,2.70
2022-08-26T03:56:46.566Z,2.35
2022-08-26T03:59:51.555Z,1.92
2022-08-26T04:02:56.557Z,1.73
2022-08-26T04:06:01.288Z,2.58
2022-08-26T04:09:10.215Z,2.60
2022-08-26T04:12:15.106Z,1.55
2022-08-26T04:15:21.804Z,1.90
2022-08-26T04:18:31.453Z,3.58
2022-08-26T04:21:42.705Z,2.00
2022-08-26T04:24:47.432Z,2.65
2022-08-26T04:27:51.652Z,2.38
2022-08-26T04:30:56.240Z,1.25
2022-08-26T04:34:01.285Z,2.53
2022-08-26T04:37:06.495Z,1.98
2022-08-26T04:40:12.009Z,0.90
2022-08-26T04:43:16.862Z,1.00
2022-08-26T04:46:24.412Z,2.38
2022-08-26T04:49:28.971Z,2.00
2022-08-26T04:52:40.291Z,1.08
2022-08-26T04:55:46.061Z,2.28
2022-08-26T04:58:53.260Z,2.42
2022-08-26T05:01:59.632Z,1.40
2022-08-26T05:05:05.789Z,1.80
2022-08-26T05:08:12.714Z,1.42
2022-08-26T05:11:17.475Z,1.63
2022-08-26T05:14:23.413Z,0.52
2022-08-26T05:17:28.306Z,1.52
2022-08-26T05:20:39.208Z,1.35
2022-08-26T05:23:43.684Z,1.52
2022-08-26T05:26:49.590Z,2.28
2022-08-26T05:29:57.487Z,0.60
2022-08-26T05:33:03.645Z,1.23
2022-08-26T05:36:11.936Z,0.85
2022-08-26T05:39:18.355Z,0.75
2022-08-26T05:42:23.201Z,1.17
2022-08-26T05:45:27.957Z,0.95
2022-08-26T05:48:32.181Z,1.10
2022-08-26T05:51:36.975Z,2.15
2022-08-26T05:54:41.836Z,1.08
2022-08-26T05:57:46.637Z,1.17
2022-08-26T06:01:04.849Z,2.05
2022-08-26T06:04:09.713Z,1.60
2022-08-26T06:07:14.428Z,2.20
2022-08-26T06:10:31.966Z,2.28
2022-08-26T06:13:38.702Z,1.10
2022-08-26T06:16:45.103Z,0.80
2022-08-26T06:19:49.408Z,1.42
2022-08-26T06:23:12.687Z,1.50
2022-08-26T06:26:17.473Z,2.92
2022-08-26T06:29:25.369Z,2.33
2022-08-26T06:32:30.024Z,1.30
2022-08-26T06:35:41.178Z,1.42
2022-08-26T06:38:48.260Z,2.45
2022-08-26T06:41:52.949Z,1.48
2022-08-26T06:44:57.434Z,1.02
2022-08-26T06:48:04.891Z,1.10
2022-08-26T06:51:23.637Z,1.48
2022-08-26T06:54:31.519Z,2.53
2022-08-26T06:57:37.663Z,1.58
2022-08-26T07:00:47.192Z,1.48
2022-08-26T07:03:57.830Z,1.42
2022-08-26T07:07:02.165Z,1.80
2022-08-26T07:10:08.646Z,2.25
2022-08-26T07:13:13.022Z,1.92
2022-08-26T07:16:18.375Z,1.10
2022-08-26T07:19:29.107Z,2.13
2022-08-26T07:22:37.081Z,1.63
2022-08-26T07:25:42.551Z,2.28
2022-08-26T07:28:53.400Z,1.02
2022-08-26T07:31:58.154Z,0.93
2022-08-26T07:35:02.513Z,1.17
2022-08-26T07:38:07.100Z,1.45
2022-08-26T07:41:13.298Z,1.30
2022-08-26T07:44:18.647Z,2.10
2022-08-26T07:47:24.727Z,1.15
2022-08-26T07:50:49.360Z,1.35
2022-08-26T07:53:56.012Z,1.58
2022-08-26T07:57:01.244Z,1.40
2022-08-26T08:00:16.030Z,1.33
2022-08-26T08:03:20.908Z,0.80
2022-08-26T08:06:28.265Z,1.27
2022-08-26T08:09:33.441Z,1.45
2022-08-26T08:12:38.254Z,1.50
2022-08-26T08:15:43.110Z,1.35
2022-08-26T08:18:47.922Z,1.77
2022-08-26T08:21:54.824Z,1.50
2022-08-26T08:24:59.620Z,1.00
2022-08-26T08:28:04.571Z,1.75
2022-08-26T08:31:10.011Z,1.65
2022-08-26T08:34:15.120Z,2.45
2022-08-26T08:37:19.871Z,1.00
2022-08-26T08:40:27.509Z,1.00
2022-08-26T08:43:43.291Z,1.48
2022-08-26T08:46:54.467Z,2.58
2022-08-26T08:50:14.339Z,2.03
2022-08-26T08:53:39.332Z,2.55
2022-08-26T08:57:10.933Z,2.00
2022-08-26T09:00:19.349Z,1.40
2022-08-26T09:03:55.477Z,2.28
2022-08-26T09:07:02.921Z,1.60
2022-08-26T09:10:19.200Z,0.80
2022-08-26T09:13:25.230Z,2.53
2022-08-26T09:17:01.462Z,2.35
2022-08-26T09:20:52.146Z,1.38
2022-08-26T09:23:57.468Z,2.47
2022-08-26T09:27:01.982Z,1.75
2022-08-26T09:30:08.491Z,1.17
2022-08-26T09:33:19.255Z,2.17
2022-08-26T09:36:45.174Z,2.38
2022-08-26T09:39:50.168Z,1.30
2022-08-26T09:43:22.919Z,0.82
2022-08-26T09:46:28.554Z,2.88
2022-08-26T09:49:37.462Z,2.03
2022-08-26T09:52:43.423Z,1.77
2022-08-26T09:55:51.281Z,2.35
2022-08-26T09:58:57.520Z,1.52
2022-08-26T10:02:32.747Z,1.55
2022-08-26T10:05:54.223Z,1.25
2022-08-26T10:09:04.522Z,0.95
2022-08-26T10:12:18.678Z,3.63
2022-08-26T10:15:25.414Z,1.83
2022-08-26T10:19:16.901Z,1.55
2022-08-26T10:22:45.706Z,2.63
2022-08-26T10:25:59.622Z,2.42
2022-08-26T10:29:30.016Z,2.88
2022-08-26T10:33:12.542Z,2.47
2022-08-26T10:37:05.139Z,1.38
2022-08-26T10:40:17.949Z,1.65
2022-08-26T10:43:32.746Z,2.38
2022-08-26T10:46:50.535Z,3.13
2022-08-26T10:50:03.218Z,1.55
2022-08-26T10:53:25.142Z,3.83
2022-08-26T10:56:48.397Z,2.40
2022-08-26T11:00:31.336Z,0.88
2022-08-26T11:04:18.103Z,2.50
2022-08-26T11:07:51.367Z,0.95
2022-08-26T11:10:59.489Z,1.27
2022-08-26T11:14:29.883Z,0.77
2022-08-26T11:17:45.600Z,1.58
2022-08-26T11:20:50.006Z,2.35
2022-08-26T11:23:55.275Z,1.73
2022-08-26T11:27:00.330Z,1.45
2022-08-26T11:30:38.948Z,1.95
2022-08-26T11:33:52.027Z,2.85
2022-08-26T11:37:00.402Z,1.50
2022-08-26T11:40:12.597Z,1.60
2022-08-26T11:43:23.806Z,1.25
2022-08-26T11:46:35.730Z,1.50
2022-08-26T11:49:41.775Z,2.90
2022-08-26T11:53:07.580Z,1.38
2022-08-26T11:56:38.137Z,1.40
2022-08-26T11:59:43.422Z,0.45
2022-08-26T12:02:49.102Z,0.75
2022-08-26T12:05:54.236Z,1.38
2022-08-26T12:09:05.311Z,1.10
2022-08-26T12:12:15.942Z,0.88
2022-08-26T12:15:23.826Z,0.95
2022-08-26T12:18:36.584Z,1.08
2022-08-26T12:21:41.227Z,0.93
2022-08-26T12:24:58.518Z,1.17
2022-08-26T12:28:06.156Z,0.55
2022-08-26T12:31:11.516Z,0.77
2022-08-26T12:34:18.456Z,0.73
2022-08-26T12:37:23.126Z,1.05
2022-08-26T12:40:32.583Z,1.40
2022-08-26T12:43:44.806Z,2.10
2022-08-26T12:46:49.877Z,1.38
2022-08-26T12:50:22.126Z,1.50
2022-08-26T12:53:31.414Z,0.77
2022-08-26T12:56:39.563Z,1.30
2022-08-26T12:59:44.144Z,1.23
2022-08-26T13:02:48.891Z,2.00
2022-08-26T13:05:53.380Z,0.30
2022-08-26T13:09:08.423Z,1.17
2022-08-26T13:12:27.308Z,1.67
2022-08-26T13:15:32.135Z,2.10
2022-08-26T13:18:38.551Z,1.17
2022-08-26T13:21:55.859Z,2.03
2022-08-26T13:25:00.397Z,0.80
2022-08-26T13:28:05.288Z,0.80
2022-08-26T13:31:14.919Z,0.47
2022-08-26T13:34:22.967Z,0.60
2022-08-26T13:37:34.706Z,1.40
2022-08-26T13:40:43.665Z,1.02
2022-08-26T13:43:48.200Z,1.40
2022-08-26T13:46:52.873Z,0.88
2022-08-26T13:49:57.468Z,1.00
2022-08-26T13:53:02.601Z,0.73
2022-08-26T13:56:10.830Z,0.75
2022-08-26T13:59:15.690Z,0.68
2022-08-26T14:02:20.448Z,0.55
2022-08-26T14:05:24.901Z,0.60
2022-08-26T14:08:30.754Z,0.90
2022-08-26T14:11:43.244Z,0.75
2022-08-26T14:18:06.636Z,0.30
2022-08-26T14:21:13.948Z,1.15
2022-08-26T14:24:19.067Z,0.40
2022-08-26T14:27:23.657Z,0.57
2022-08-26T14:30:29.027Z,0.77
2022-08-26T14:33:37.120Z,0.95
2022-08-26T14:36:41.662Z,0.80
2022-08-26T14:39:46.564Z,1.02
2022-08-26T14:42:54.330Z,0.55
2022-08-26T14:45:58.711Z,0.65
2022-08-26T14:49:06.173Z,1.42
2022-08-26T14:52:13.512Z,0.55
2022-08-26T14:55:18.321Z,1.30
2022-08-26T14:58:23.316Z,0.57
2022-08-26T15:01:31.069Z,0.52
2022-08-26T15:04:36.759Z,1.38
2022-08-26T15:07:42.127Z,0.32
2022-08-26T15:10:46.576Z,2.05
2022-08-26T15:13:50.843Z,2.25
2022-08-26T15:16:57.386Z,1.20
2022-08-26T15:20:02.283Z,0.40
2022-08-26T15:23:07.396Z,1.52
2022-08-26T15:26:13.179Z,1.38
2022-08-26T15:29:18.365Z,0.90
2022-08-26T15:32:23.169Z,0.95
2022-08-26T15:35:27.652Z,0.70
2022-08-26T15:38:41.330Z,1.40
2022-08-26T15:41:46.235Z,1.27
2022-08-26T15:44:52.275Z,0.40
2022-08-26T15:48:01.158Z,1.17
2022-08-26T15:51:07.535Z,1.20
2022-08-26T15:54:12.105Z,1.25
2022-08-26T15:57:19.122Z,1.65
2022-08-26T16:00:24.458Z,1.35
2022-08-26T16:03:28.906Z,0.63
2022-08-26T16:06:36.957Z,0.88
2022-08-26T16:09:41.718Z,0.30
2022-08-26T16:12:46.676Z,0.57
2022-08-26T16:15:52.447Z,0.75
2022-08-26T16:18:57.036Z,1.13
2022-08-26T16:22:01.493Z,0.63
2022-08-26T16:25:07.701Z,0.85
2022-08-26T16:28:14.090Z,2.17
2022-08-26T16:31:30.784Z,2.30
2022-08-26T16:34:36.133Z,1.05
2022-08-26T16:37:41.043Z,1.00
2022-08-26T16:40:45.772Z,1.55
2022-08-26T16:43:52.738Z,0.40
2022-08-26T16:46:57.703Z,1.13
2022-08-26T16:50:08.301Z,1.02
2022-08-26T16:56:22.853Z,1.90
2022-08-26T16:59:28.449Z,1.80
2022-08-26T17:02:33.273Z,2.20
2022-08-26T17:05:38.118Z,0.40
2022-08-26T17:08:43.277Z,3.10
2022-08-26T17:11:48.040Z,2.22
2022-08-26T17:14:53.136Z,1.50
2022-08-26T17:17:57.730Z,0.90
2022-08-26T17:21:07.019Z,3.05
2022-08-26T17:24:11.779Z,2.33
2022-08-26T17:27:16.838Z,1.13
2022-08-26T17:30:22.509Z,0.85
2022-08-26T17:33:28.239Z,0.63
2022-08-26T17:36:33.024Z,0.65
2022-08-26T17:39:42.458Z,1.00
2022-08-26T17:42:48.150Z,0.63
2022-08-26T17:46:07.010Z,2.38
2022-08-26T17:49:12.291Z,1.42
2022-08-26T17:52:16.956Z,2.58
2022-08-26T17:55:21.885Z,0.40
2022-08-26T17:58:26.457Z,2.08
2022-08-26T18:01:33.874Z,0.73
2022-08-26T18:04:38.524Z,1.20
2022-08-26T18:07:44.782Z,1.90
2022-08-26T18:10:50.344Z,0.57
2022-08-26T18:13:54.981Z,1.55
2022-08-26T18:17:00.209Z,1.55
2022-08-26T18:20:14.155Z,1.35
2022-08-26T18:23:19.172Z,1.58
2022-08-26T18:26:37.970Z,1.98
2022-08-26T18:29:45.613Z,0.77
2022-08-26T18:32:51.713Z,1.85
2022-08-26T18:35:56.247Z,1.23
2022-08-26T18:39:01.775Z,1.67
2022-08-26T18:42:07.334Z,0.80
2022-08-26T18:45:15.992Z,1.52
2022-08-26T18:48:23.071Z,1.05
2022-08-26T18:51:32.004Z,0.60
2022-08-26T18:54:36.813Z,1.67
2022-08-26T18:57:41.642Z,0.77
2022-08-26T19:00:46.130Z,1.95
2022-08-26T19:03:51.324Z,1.83
2022-08-26T19:06:56.093Z,3.63
2022-08-26T19:10:00.687Z,0.73
2022-08-26T19:13:08.489Z,1.38
2022-08-26T19:16:19.672Z,1.15
2022-08-26T19:19:24.135Z,1.77
2022-08-26T19:22:28.825Z,1.10
2022-08-26T19:25:33.220Z,2.28
2022-08-26T19:28:40.764Z,3.08
2022-08-26T19:31:46.424Z,2.10
2022-08-26T19:34:53.235Z,1.40
2022-08-26T19:37:57.992Z,1.70
2022-08-26T19:41:02.547Z,1.02
2022-08-26T19:44:13.062Z,1.98
2022-08-26T19:47:17.732Z,1.88
2022-08-26T19:50:25.133Z,1.67
2022-08-26T19:53:29.886Z,1.17
2022-08-26T19:56:35.006Z,2.17
2022-08-26T19:59:40.338Z,0.95
2022-08-26T20:02:45.079Z,1.00
2022-08-26T20:05:49.481Z,3.13
2022-08-26T20:08:56.186Z,1.05
2022-08-26T20:12:01.999Z,1.90
2022-08-26T20:15:10.871Z,2.08
2022-08-26T20:18:34.048Z,2.15
2022-08-26T20:21:40.846Z,1.17
2022-08-26T20:24:48.487Z,2.13
2022-08-26T20:27:53.096Z,1.45
2022-08-26T20:30:57.788Z,1.55
2022-08-26T20:34:03.426Z,2.78
2022-08-26T20:37:09.636Z,1.00
2022-08-26T20:40:15.395Z,0.75
2022-08-26T20:43:20.253Z,1.17
2022-08-26T20:46:26.072Z,1.95
2022-08-26T20:49:33.671Z,1.58
2022-08-26T20:52:39.557Z,1.48
2022-08-26T20:55:44.194Z,1.65
2022-08-26T20:58:49.427Z,1.08
2022-08-26T21:01:54.736Z,0.80
2022-08-26T21:05:00.174Z,1.75
2022-08-26T21:08:04.906Z,2.15
2022-08-26T21:11:09.240Z,2.15
2022-08-26T21:14:17.116Z,1.52
2022-08-26T21:17:21.724Z,1.42
2022-08-26T21:20:26.284Z,1.83
2022-08-26T21:23:31.002Z,1.35
2022-08-26T21:26:35.680Z,1.55
2022-08-26T21:29:40.228Z,1.30
2022-08-26T21:32:44.798Z,1.77
2022-08-26T21:35:54.257Z,1.70
2022-08-26T21:38:59.758Z,1.17
2022-08-26T21:42:04.660Z,1.00
2022-08-26T21:45:09.999Z,1.73
2022-08-26T21:48:14.757Z,2.60
2022-08-26T21:51:23.194Z,2.05
2022-08-26T21:54:27.713Z,1.75
2022-08-26T21:57:33.109Z,1.42
2022-08-26T22:00:38.064Z,2.55
2022-08-26T22:03:47.679Z,1.40
2022-08-26T22:06:57.507Z,1.73
2022-08-26T22:10:02.273Z,1.52
2022-08-26T22:13:07.148Z,1.67
2022-08-26T22:16:13.314Z,1.65
2022-08-26T22:19:20.608Z,1.83
2022-08-26T22:22:29.167Z,1.88
2022-08-26T22:25:33.591Z,2.58
2022-08-26T22:28:39.299Z,2.17
2022-08-26T22:31:43.947Z,1.80
2022-08-26T22:34:48.556Z,2.10
2022-08-26T22:37:53.140Z,1.27
2022-08-26T22:41:05.390Z,1.40
2022-08-26T22:44:12.796Z,2.30
2022-08-26T22:47:18.438Z,1.65
2022-08-26T22:50:23.068Z,1.33
2022-08-26T22:53:28.254Z,1.63
2022-08-26T22:56:35.954Z,1.90
2022-08-26T22:59:40.793Z,2.80
2022-08-26T23:02:47.998Z,3.55
2022-08-26T23:05:53.447Z,1.95
2022-08-26T23:08:59.073Z,2.20
2022-08-26T23:12:03.970Z,1.63
2022-08-26T23:15:11.450Z,2.05
2022-08-26T23:18:16.635Z,2.83
2022-08-26T23:21:21.152Z,1.92
2022-08-26T23:24:25.702Z,1.40
2022-08-26T23:27:30.460Z,2.08
2022-08-26T23:30:35.289Z,1.58
2022-08-26T23:33:58.701Z,1.40
2022-08-26T23:37:06.170Z,0.80
2022-08-26T23:40:29.549Z,1.52
2022-08-26T23:43:34.442Z,1.42
2022-08-26T23:46:38.996Z,1.45
2022-08-26T23:49:44.088Z,3.00
2022-08-26T23:53:08.571Z,1.85
2022-08-26T23:56:16.344Z,2.10
2022-08-26T23:59:21.069Z,2.58
